Portada
METAR-TAF:

METAR-TAF

Aeropuertos :

Agri-Science Center

Chillicothe, Misuri, Estados Unidos

latitud: 39-49N, longitud: 093-35W, altitud: 234 m

Observación

El informe se hizo hace 53 minutos, a las 04:52 UTC
Viento calma
Temperatura 20°C
Humedad 94%
Presión 1010 hPa

METAR: KCDJ 250452Z AUTO 00000KT 20/19 A2982 RMK AO1 SLP087 T02000189

Hora: 00:45 (05:45 UTC)


TAF: falta

Observaciones y pronósticos meteorológicos de más de 4000 aeropuertos (mensajes METAR y TAF).

Los puntos amarillos y rojos representan las estaciones disponibles.

Ponga el ratón en el punto deseado para ver el nombre de la estación.

Haga clic para ver las observaciones y los pronósticos meteorológicos.

Para cambiar el mapa : haga clic en los botones verdes con una cruz de color negro para hacer un zoom, en el botón verde con un guión para alejar o en las flechas verdes para mapas adyacentes.


METAR-TAF: